Time;durP1;ratioP1;P1;durP2;ratioP2;P2;SDS_P1;SDS_P2;PMS_P1;PMS_P2;Temp;Humidity;BMP_temperature;BMP_pressure;BME280_temperature;BME280_humidity;BME280_pressure;Samples;Min_cycle;Max_cycle;Signal;HPM_P1;HPM_P2
2021/09/12 00:02:45;;;;;;;17.05;11.95;;;17.20;99.90;;;;;;12521698;28;20053;-37
2021/09/12 00:08:50;;;;;;;16.58;12.82;;;17.20;99.90;;;;;;12521815;28;20090;-37
2021/09/12 00:14:52;;;;;;;15.93;12.95;;;17.20;99.90;;;;;;12522186;28;20455;-38
2021/09/12 00:20:54;;;;;;;18.33;13.45;;;17.20;99.90;;;;;;12519854;28;20049;-38
2021/09/12 00:26:56;;;;;;;17.85;13.52;;;17.20;99.90;;;;;;12523855;28;20103;-37
2021/09/12 00:32:58;;;;;;;23.90;15.57;;;17.20;99.90;;;;;;12523540;28;20048;-37
2021/09/12 00:39:01;;;;;;;19.67;14.35;;;17.10;99.90;;;;;;12519440;28;20055;-37
2021/09/12 00:45:04;;;;;;;21.05;15.40;;;17.10;99.90;;;;;;12517171;28;20045;-37
2021/09/12 00:51:06;;;;;;;19.33;14.93;;;17.10;99.90;;;;;;12516208;28;20045;-37
2021/09/12 00:57:10;;;;;;;20.35;15.73;;;17.10;99.90;;;;;;12518869;28;20068;-38
2021/09/12 01:03:12;;;;;;;26.88;17.75;;;17.10;99.90;;;;;;12516994;28;20075;-37
2021/09/12 01:09:15;;;;;;;26.10;17.63;;;17.10;99.90;;;;;;12519603;28;20469;-37
2021/09/12 01:15:17;;;;;;;28.67;19.48;;;17.20;99.90;;;;;;12515100;28;20398;-39
2021/09/12 01:21:24;;;;;;;27.75;19.60;;;17.20;99.90;;;;;;12519894;28;20048;-37
2021/09/12 01:27:26;;;;;;;29.13;20.77;;;17.10;99.90;;;;;;12519074;28;20053;-37
2021/09/12 01:33:28;;;;;;;28.77;19.77;;;17.10;99.90;;;;;;12514444;28;20053;-38
2021/09/12 01:39:29;;;;;;;27.38;20.02;;;17.10;99.90;;;;;;12520034;28;20119;-37
2021/09/12 01:45:31;;;;;;;30.40;20.88;;;17.10;99.90;;;;;;12511554;28;20041;-37
2021/09/12 01:51:33;;;;;;;30.95;21.08;;;17.10;99.90;;;;;;12511874;28;20412;-38
2021/09/12 01:57:36;;;;;;;33.25;21.77;;;17.10;99.90;;;;;;12498225;28;20416;-37
2021/09/12 02:03:38;;;;;;;30.25;20.40;;;17.20;99.90;;;;;;12512678;28;20083;-37
2021/09/12 02:09:40;;;;;;;29.30;21.65;;;17.20;99.90;;;;;;12509347;28;20416;-41
2021/09/12 02:15:42;;;;;;;31.02;21.33;;;17.20;99.90;;;;;;12516989;28;20068;-37
2021/09/12 02:21:44;;;;;;;35.00;21.23;;;17.20;99.90;;;;;;12518190;28;20096;-37
2021/09/12 02:27:46;;;;;;;33.03;21.48;;;17.20;99.90;;;;;;12507546;28;20074;-38
2021/09/12 02:33:48;;;;;;;31.10;21.55;;;17.20;99.90;;;;;;12519096;28;20052;-37
2021/09/12 02:39:50;;;;;;;34.72;22.50;;;17.20;99.90;;;;;;12513586;28;20056;-37
2021/09/12 02:45:52;;;;;;;36.58;22.30;;;17.20;99.90;;;;;;12508015;28;20072;-40
2021/09/12 02:51:54;;;;;;;36.70;22.35;;;17.20;99.90;;;;;;12511124;28;20049;-37
2021/09/12 02:57:56;;;;;;;33.28;22.52;;;17.20;99.90;;;;;;12511859;28;20052;-38
2021/09/12 03:04:00;;;;;;;37.17;23.10;;;17.20;99.90;;;;;;12511586;28;20508;-38
2021/09/12 03:10:02;;;;;;;33.78;23.42;;;17.20;99.90;;;;;;12509712;28;20493;-37
2021/09/12 03:16:04;;;;;;;33.63;23.05;;;17.20;99.90;;;;;;12491605;28;20163;-37
2021/09/12 03:22:07;;;;;;;34.38;23.10;;;17.20;99.90;;;;;;12514034;28;20068;-41
2021/09/12 03:28:09;;;;;;;33.63;22.95;;;17.20;99.90;;;;;;12509554;28;20046;-37
2021/09/12 03:34:11;;;;;;;36.42;23.63;;;17.20;99.90;;;;;;12513819;28;20080;-37
2021/09/12 03:40:13;;;;;;;38.53;24.90;;;17.20;99.90;;;;;;12516389;28;20041;-39
2021/09/12 03:46:16;;;;;;;34.90;23.90;;;17.20;99.90;;;;;;12521308;28;20527;-38
2021/09/12 03:52:19;;;;;;;36.08;23.75;;;17.20;99.90;;;;;;12516768;28;20068;-37
2021/09/12 03:58:21;;;;;;;39.35;25.55;;;17.20;99.90;;;;;;12519657;28;20045;-37
2021/09/12 04:04:23;;;;;;;37.92;24.77;;;17.20;99.90;;;;;;12518763;28;20041;-37
2021/09/12 04:10:25;;;;;;;38.65;25.95;;;17.20;99.90;;;;;;12514492;28;20041;-36
2021/09/12 04:16:28;;;;;;;45.67;29.55;;;17.40;99.90;;;;;;12518951;28;20049;-40
2021/09/12 04:22:30;;;;;;;47.38;29.55;;;17.30;99.90;;;;;;12515022;28;20438;-37
2021/09/12 04:28:32;;;;;;;46.72;29.33;;;17.40;99.90;;;;;;12516018;28;20076;-37
2021/09/12 04:34:34;;;;;;;42.35;27.60;;;17.20;99.90;;;;;;12517464;28;20765;-38
2021/09/12 04:40:36;;;;;;;42.05;26.40;;;17.20;99.90;;;;;;12517697;28;20053;-37
2021/09/12 04:46:38;;;;;;;41.10;25.08;;;17.10;99.90;;;;;;12517158;28;20145;-37
2021/09/12 04:52:43;;;;;;;42.85;24.30;;;17.10;99.90;;;;;;12519052;28;20053;-39
2021/09/12 04:58:47;;;;;;;38.53;22.83;;;17.20;99.90;;;;;;12519737;28;20118;-37
2021/09/12 05:04:49;;;;;;;36.40;23.23;;;17.10;99.90;;;;;;12513748;28;20092;-37
2021/09/12 05:10:51;;;;;;;36.97;21.95;;;17.00;99.90;;;;;;12515812;28;20144;-39
2021/09/12 05:16:54;;;;;;;34.70;20.90;;;17.00;99.90;;;;;;12518557;28;20049;-37
2021/09/12 05:22:58;;;;;;;33.90;20.42;;;16.90;99.90;;;;;;12516994;28;20049;-37
2021/09/12 05:29:00;;;;;;;25.60;16.75;;;17.20;99.90;;;;;;12520410;28;20456;-38
2021/09/12 05:35:04;;;;;;;23.98;15.52;;;17.20;99.90;;;;;;12512278;28;20053;-38
2021/09/12 05:41:06;;;;;;;21.87;14.73;;;17.10;99.90;;;;;;12516275;28;20265;-37
2021/09/12 05:47:08;;;;;;;19.77;13.43;;;17.10;99.90;;;;;;12515164;28;20066;-37
2021/09/12 05:53:12;;;;;;;24.02;14.73;;;17.00;99.90;;;;;;12516788;28;20060;-37
2021/09/12 05:59:14;;;;;;;26.45;16.73;;;16.90;99.90;;;;;;12520285;28;20056;-37
2021/09/12 06:05:17;;;;;;;24.90;16.33;;;16.60;99.90;;;;;;12512123;28;20838;-37
2021/09/12 06:11:19;;;;;;;28.58;16.38;;;16.60;99.90;;;;;;12513737;28;20044;-37
2021/09/12 06:17:21;;;;;;;23.60;15.63;;;16.50;99.90;;;;;;12520487;28;20053;-37
2021/09/12 06:23:24;;;;;;;25.15;17.52;;;16.60;99.90;;;;;;12514514;28;20813;-37
2021/09/12 06:29:26;;;;;;;28.33;17.67;;;16.50;99.90;;;;;;12513366;28;20048;-37
2021/09/12 06:35:29;;;;;;;25.13;15.93;;;16.50;99.90;;;;;;12508001;28;20088;-37
2021/09/12 06:41:30;;;;;;;23.77;16.45;;;16.50;99.90;;;;;;12511724;28;20469;-37
2021/09/12 06:47:32;;;;;;;26.75;16.25;;;16.50;99.90;;;;;;12509419;28;20144;-37
2021/09/12 06:53:34;;;;;;;25.92;16.42;;;16.60;99.90;;;;;;12514139;28;20052;-37
2021/09/12 06:59:38;;;;;;;27.42;16.17;;;16.60;99.90;;;;;;12512169;28;20398;-38
2021/09/12 07:05:40;;;;;;;26.77;17.00;;;16.60;99.90;;;;;;12514125;28;20969;-37
2021/09/12 07:11:44;;;;;;;25.58;16.80;;;16.60;99.90;;;;;;12523758;28;20076;-37
2021/09/12 07:17:46;;;;;;;26.95;16.15;;;16.70;99.90;;;;;;12518800;28;20052;-37
2021/09/12 07:23:48;;;;;;;28.25;16.95;;;16.70;99.90;;;;;;12522823;28;20076;-37
2021/09/12 07:29:50;;;;;;;27.98;18.55;;;16.70;99.90;;;;;;12524440;28;20045;-37
2021/09/12 07:35:52;;;;;;;27.52;17.77;;;16.80;99.90;;;;;;12516181;28;20165;-37
2021/09/12 07:41:57;;;;;;;28.08;17.08;;;17.00;99.90;;;;;;12516899;28;20075;-37
2021/09/12 07:47:59;;;;;;;25.52;17.10;;;17.10;99.90;;;;;;12516703;28;20057;-36
2021/09/12 07:54:01;;;;;;;25.35;17.50;;;17.00;99.90;;;;;;12518653;28;20053;-37
2021/09/12 08:00:05;;;;;;;25.45;16.42;;;17.00;99.90;;;;;;12520381;28;20049;-37
2021/09/12 08:06:11;;;;;;;24.65;16.10;;;17.20;99.90;;;;;;12516137;28;20045;-37
2021/09/12 08:12:13;;;;;;;22.55;14.65;;;17.20;99.90;;;;;;12512605;28;20082;-37
2021/09/12 08:18:17;;;;;;;22.80;14.70;;;17.40;99.90;;;;;;12523833;28;20084;-37
2021/09/12 08:24:19;;;;;;;22.73;13.82;;;17.70;99.90;;;;;;12515518;28;20067;-37
2021/09/12 08:30:24;;;;;;;21.80;13.95;;;18.00;99.90;;;;;;12518111;28;20061;-37
2021/09/12 08:36:26;;;;;;;18.35;11.73;;;18.20;99.90;;;;;;12520164;28;20057;-37
2021/09/12 08:42:29;;;;;;;14.50;7.85;;;18.30;99.90;;;;;;12514802;28;20072;-38
2021/09/12 08:48:33;;;;;;;16.47;7.50;;;18.30;99.90;;;;;;12517742;28;20049;-37
2021/09/12 08:54:35;;;;;;;12.13;6.83;;;18.50;99.90;;;;;;12515401;28;20065;-38
2021/09/12 09:00:46;;;;;;;14.17;7.60;;;18.50;99.90;;;;;;12515832;28;20045;-37
2021/09/12 09:06:58;;;;;;;11.32;5.88;;;18.70;99.90;;;;;;12513812;28;20053;-37
2021/09/12 09:13:01;;;;;;;13.98;5.45;;;18.90;99.90;;;;;;12512860;28;20135;-37
2021/09/12 09:19:05;;;;;;;11.33;6.60;;;19.00;99.90;;;;;;12516180;28;20139;-37
2021/09/12 09:25:13;;;;;;;10.95;5.72;;;19.00;99.90;;;;;;12499574;28;20459;-37
2021/09/12 09:31:16;;;;;;;12.70;6.10;;;19.10;99.90;;;;;;12512659;28;20049;-37
2021/09/12 09:37:21;;;;;;;13.57;5.70;;;19.10;99.90;;;;;;12516287;28;20072;-38
2021/09/12 09:43:23;;;;;;;10.50;5.65;;;19.30;99.90;;;;;;12509655;28;20056;-37
2021/09/12 09:49:29;;;;;;;11.20;5.72;;;19.40;99.90;;;;;;12513760;28;20735;-38
2021/09/12 09:55:31;;;;;;;11.00;5.70;;;19.50;99.90;;;;;;12513524;28;20056;-37
2021/09/12 10:01:36;;;;;;;10.25;5.93;;;19.50;99.90;;;;;;12514039;28;20065;-37
2021/09/12 10:07:41;;;;;;;10.48;5.00;;;19.70;99.90;;;;;;12512722;28;20052;-37
2021/09/12 10:13:45;;;;;;;8.57;4.30;;;19.80;99.90;;;;;;12509027;28;20057;-38
2021/09/12 10:19:47;;;;;;;8.65;4.50;;;19.90;99.90;;;;;;12513304;28;20402;-37
2021/09/12 10:25:50;;;;;;;14.45;6.22;;;19.90;99.90;;;;;;12515539;28;20045;-38
2021/09/12 10:31:52;;;;;;;12.15;7.20;;;20.00;99.90;;;;;;12516842;28;20037;-37
2021/09/12 10:38:08;;;;;;;9.35;5.55;;;20.20;99.90;;;;;;12515085;28;20049;-37
2021/09/12 10:44:14;;;;;;;11.43;5.40;;;20.10;99.90;;;;;;12513158;28;20052;-37
2021/09/12 10:50:36;;;;;;;7.65;3.83;;;20.20;99.90;;;;;;12498734;28;20054;-37
2021/09/12 10:56:41;;;;;;;8.63;4.50;;;20.10;99.90;;;;;;12509375;28;20040;-37
2021/09/12 11:02:49;;;;;;;12.25;5.05;;;20.20;99.90;;;;;;12512433;28;20137;-39
2021/09/12 11:08:53;;;;;;;9.93;4.90;;;20.30;99.90;;;;;;12511386;28;20048;-37
2021/09/12 11:14:55;;;;;;;9.77;4.82;;;20.40;99.90;;;;;;12509886;28;20187;-37
2021/09/12 11:20:59;;;;;;;11.93;5.00;;;20.90;99.90;;;;;;12507034;28;20950;-38
2021/09/12 11:27:08;;;;;;;9.73;4.47;;;21.00;99.90;;;;;;12508863;28;20063;-37
2021/09/12 11:33:10;;;;;;;8.75;4.60;;;20.60;99.90;;;;;;12489942;28;20116;-37
2021/09/12 11:39:15;;;;;;;9.07;5.53;;;20.60;99.90;;;;;;12511019;28;20057;-37
2021/09/12 11:45:17;;;;;;;10.60;5.63;;;20.30;99.90;;;;;;12508336;28;20406;-37
2021/09/12 11:51:40;;;;;;;12.70;6.30;;;20.20;99.90;;;;;;12512412;28;20114;-37
2021/09/12 11:57:43;;;;;;;9.10;4.93;;;20.50;99.90;;;;;;12516183;28;20052;-37
2021/09/12 12:03:45;;;;;;;9.20;5.68;;;20.60;99.90;;;;;;12516747;28;20057;-37
2021/09/12 12:09:50;;;;;;;11.75;5.90;;;21.20;99.90;;;;;;12520166;28;20053;-38
2021/09/12 12:16:00;;;;;;;9.82;5.75;;;21.40;99.90;;;;;;12519381;28;20124;-37
2021/09/12 12:22:06;;;;;;;9.18;5.20;;;21.80;99.90;;;;;;12519779;28;20147;-37
2021/09/12 12:28:27;;;;;;;8.68;4.45;;;21.30;99.90;;;;;;12520305;28;20094;-41
2021/09/12 12:34:40;;;;;;;7.97;4.32;;;20.90;99.90;;;;;;12519187;28;20144;-37
2021/09/12 12:40:42;;;;;;;9.33;4.60;;;21.30;99.90;;;;;;12515516;28;20486;-37
2021/09/12 12:46:45;;;;;;;8.35;4.57;;;21.30;99.90;;;;;;12516417;28;20780;-37
2021/09/12 12:53:38;;;;;;;6.50;3.77;;;20.80;99.90;;;;;;12506908;23;20065;-84
2021/09/12 12:59:44;;;;;;;6.28;3.20;;;20.50;99.90;;;;;;12432297;23;20161;-43
2021/09/12 13:05:48;;;;;;;5.85;3.42;;;20.90;99.90;;;;;;12353288;28;20077;-42
2021/09/12 13:11:51;;;;;;;12.00;3.47;;;20.60;99.90;;;;;;12416711;28;20418;-39
2021/09/12 13:17:56;;;;;;;6.90;3.40;;;21.00;99.90;;;;;;12417595;28;20100;-37
2021/09/12 13:24:00;;;;;;;8.38;3.50;;;21.40;99.90;;;;;;12416531;28;20050;-43
2021/09/12 13:30:03;;;;;;;6.60;2.80;;;21.50;99.90;;;;;;12417357;28;20054;-42
2021/09/12 13:36:05;;;;;;;;;;;21.40;99.90;;;;;;12418798;28;20049;-37
2021/09/12 13:42:07;;;;;;;6.50;2.17;;;21.30;99.90;;;;;;12419436;28;19940;-39
2021/09/12 13:48:09;;;;;;;7.13;2.40;;;21.40;99.90;;;;;;12422382;28;20096;-37
2021/09/12 13:54:11;;;;;;;5.95;2.20;;;21.50;99.90;;;;;;12418173;28;20123;-43
2021/09/12 14:00:13;;;;;;;6.65;2.22;;;21.10;99.90;;;;;;12417819;28;20073;-37
2021/09/12 14:06:15;;;;;;;7.03;2.03;;;21.10;99.90;;;;;;12420938;28;20050;-44
2021/09/12 14:12:17;;;;;;;3.80;1.77;;;21.10;99.90;;;;;;12412203;28;20096;-37
2021/09/12 14:18:19;;;;;;;5.45;2.10;;;21.10;99.90;;;;;;12416042;28;20053;-43
2021/09/12 14:24:21;;;;;;;4.10;1.85;;;21.00;99.90;;;;;;12417682;28;20057;-42
2021/09/12 14:30:23;;;;;;;5.63;2.53;;;20.80;99.90;;;;;;12418410;28;20054;-42
2021/09/12 14:36:29;;;;;;;4.70;2.28;;;20.50;99.90;;;;;;12418776;28;20137;-43
2021/09/12 14:42:31;;;;;;;5.00;2.50;;;20.80;99.90;;;;;;12422285;28;20058;-43
2021/09/12 14:48:33;;;;;;;5.28;2.20;;;20.90;99.90;;;;;;12417771;28;20061;-38
2021/09/12 14:54:35;;;;;;;4.70;2.25;;;20.90;99.90;;;;;;12419966;28;20169;-38
2021/09/12 15:00:37;;;;;;;7.70;2.50;;;21.40;99.90;;;;;;12418896;28;20060;-38
2021/09/12 15:06:39;;;;;;;7.05;2.47;;;21.20;99.90;;;;;;12417468;28;20115;-43
2021/09/12 15:12:42;;;;;;;4.88;1.92;;;21.10;99.90;;;;;;12418886;28;20656;-43
2021/09/12 15:18:44;;;;;;;6.57;2.40;;;21.60;99.90;;;;;;12418204;28;20364;-37
2021/09/12 15:24:48;;;;;;;7.35;2.47;;;21.60;99.90;;;;;;12413209;28;20049;-42
2021/09/12 15:30:50;;;;;;;6.32;2.70;;;21.30;99.90;;;;;;12420615;28;20103;-38
2021/09/12 15:36:52;;;;;;;6.03;2.50;;;21.40;99.90;;;;;;12421422;28;20115;-37
2021/09/12 15:42:54;;;;;;;5.05;2.47;;;21.10;99.90;;;;;;12425023;28;20057;-37
2021/09/12 15:48:56;;;;;;;5.35;2.58;;;;;;;;;;12429073;28;20153;-43
2021/09/12 15:54:59;;;;;;;6.40;2.60;;;21.40;99.90;;;;;;12422984;28;20057;-44
2021/09/12 16:01:01;;;;;;;6.97;2.40;;;21.90;99.90;;;;;;12422032;28;20054;-38
2021/09/12 16:07:03;;;;;;;5.28;3.13;;;21.70;99.90;;;;;;12422897;28;20096;-37
2021/09/12 16:13:05;;;;;;;6.53;2.60;;;21.50;99.90;;;;;;12423016;28;20173;-38
2021/09/12 16:19:07;;;;;;;7.32;2.90;;;21.50;99.90;;;;;;12402878;28;20163;-37
2021/09/12 16:25:10;;;;;;;4.90;2.60;;;21.40;99.90;;;;;;12420911;28;20069;-37
2021/09/12 16:31:13;;;;;;;7.63;3.00;;;21.60;99.90;;;;;;12422082;28;20046;-38
2021/09/12 16:37:16;;;;;;;5.73;3.10;;;21.30;99.90;;;;;;12420595;28;20132;-38
2021/09/12 16:43:22;;;;;;;6.25;3.05;;;21.00;99.90;;;;;;12425449;28;20867;-37
2021/09/12 16:49:24;;;;;;;7.03;3.28;;;20.90;99.90;;;;;;12425632;28;20111;-39
2021/09/12 16:55:26;;;;;;;5.93;3.33;;;20.70;99.90;;;;;;12418128;28;20080;-43
2021/09/12 17:01:28;;;;;;;8.70;3.63;;;20.40;99.90;;;;;;12422696;28;20045;-42
2021/09/12 17:07:30;;;;;;;6.60;3.08;;;20.20;99.90;;;;;;12417854;28;20046;-37
2021/09/12 17:13:32;;;;;;;6.25;2.90;;;20.00;99.90;;;;;;12420345;28;20497;-38
2021/09/12 17:19:34;;;;;;;7.90;2.95;;;19.80;99.90;;;;;;12420936;28;20058;-38
2021/09/12 17:25:37;;;;;;;7.05;3.33;;;19.50;99.90;;;;;;12417172;28;20573;-37
2021/09/12 17:31:38;;;;;;;5.78;4.20;;;19.20;99.90;;;;;;12415354;28;20058;-41
2021/09/12 17:37:41;;;;;;;9.05;4.70;;;19.00;99.90;;;;;;12419391;28;20458;-43
2021/09/12 17:43:45;;;;;;;7.10;4.18;;;18.70;99.90;;;;;;12419034;28;20053;-37
2021/09/12 17:49:47;;;;;;;9.50;4.10;;;18.60;99.90;;;;;;12417915;28;20078;-43
2021/09/12 17:55:49;;;;;;;5.80;4.30;;;18.60;99.90;;;;;;12416227;28;20590;-38
2021/09/12 18:01:51;;;;;;;7.75;4.40;;;18.40;99.90;;;;;;12381546;28;1101827;-41
2021/09/12 18:07:53;;;;;;;9.45;4.78;;;18.30;99.90;;;;;;12418845;28;20061;-37
2021/09/12 18:13:55;;;;;;;8.30;4.32;;;18.20;99.90;;;;;;12420298;28;20133;-39
2021/09/12 18:19:57;;;;;;;8.55;4.00;;;18.00;99.90;;;;;;12417042;28;20148;-37
2021/09/12 18:25:58;;;;;;;6.68;3.83;;;17.90;99.90;;;;;;12414067;28;20053;-43
2021/09/12 18:32:00;;;;;;;6.65;4.25;;;17.90;99.90;;;;;;12422964;28;20100;-37
2021/09/12 18:38:02;;;;;;;8.85;4.20;;;17.90;99.90;;;;;;12422719;28;20058;-42
2021/09/12 18:44:04;;;;;;;7.63;4.60;;;17.80;99.90;;;;;;12421173;28;20050;-38
2021/09/12 18:50:07;;;;;;;7.05;4.30;;;17.40;99.90;;;;;;12417785;28;20054;-43
2021/09/12 18:56:10;;;;;;;8.87;4.33;;;17.50;99.90;;;;;;12420128;28;20056;-37
2021/09/12 19:02:13;;;;;;;6.03;3.20;;;17.60;99.90;;;;;;12419492;28;20049;-38
2021/09/12 19:08:17;;;;;;;8.07;3.63;;;17.60;99.90;;;;;;12417565;28;20465;-42
2021/09/12 19:14:24;;;;;;;4.83;3.40;;;17.50;99.90;;;;;;12421882;28;20061;-42
2021/09/12 19:20:26;;;;;;;6.10;3.63;;;17.50;99.90;;;;;;12420961;28;20138;-38
2021/09/12 19:26:27;;;;;;;7.72;3.60;;;17.30;99.90;;;;;;12420095;28;20061;-37
2021/09/12 19:32:29;;;;;;;7.60;3.75;;;17.20;99.90;;;;;;12420707;28;20061;-38
2021/09/12 19:38:31;;;;;;;8.20;3.63;;;17.20;99.90;;;;;;12419052;28;20054;-42
2021/09/12 19:44:33;;;;;;;5.90;3.47;;;17.20;99.90;;;;;;12421050;28;20072;-42
2021/09/12 19:50:35;;;;;;;9.85;4.20;;;17.00;99.90;;;;;;12421049;28;20046;-42
2021/09/12 19:56:36;;;;;;;5.55;3.65;;;16.90;99.90;;;;;;12422668;28;20495;-37
2021/09/12 20:02:40;;;;;;;6.13;3.20;;;16.90;99.90;;;;;;12420699;28;20041;-40
2021/09/12 20:08:42;;;;;;;6.00;3.70;;;17.00;99.90;;;;;;12422086;28;20099;-41
2021/09/12 20:14:44;;;;;;;6.28;3.92;;;16.90;99.90;;;;;;12421824;28;20164;-42
2021/09/12 20:20:47;;;;;;;10.63;4.97;;;17.00;99.90;;;;;;12431004;28;20103;-45
2021/09/12 20:26:50;;;;;;;11.20;5.22;;;16.90;99.90;;;;;;12433812;28;20104;-42
2021/09/12 20:32:56;;;;;;;10.82;5.72;;;16.90;99.90;;;;;;12429043;28;20069;-42
2021/09/12 20:39:00;;;;;;;11.63;6.05;;;16.70;99.90;;;;;;12430123;28;20140;-37
2021/09/12 20:45:03;;;;;;;10.50;6.22;;;16.80;99.90;;;;;;12430184;28;20103;-37
2021/09/12 20:51:05;;;;;;;13.37;6.80;;;16.90;99.90;;;;;;12430047;28;20144;-37
2021/09/12 20:57:07;;;;;;;12.68;7.90;;;17.00;99.90;;;;;;12427232;28;20077;-42
2021/09/12 21:03:09;;;;;;;10.40;6.65;;;17.00;99.90;;;;;;12426301;28;20089;-37
2021/09/12 21:09:11;;;;;;;17.95;6.78;;;17.00;99.90;;;;;;12424103;28;20058;-37
2021/09/12 21:15:14;;;;;;;13.25;7.28;;;17.10;99.90;;;;;;12424379;28;20077;-38
2021/09/12 21:21:16;;;;;;;14.15;6.45;;;17.10;99.90;;;;;;12423820;28;20091;-37
2021/09/12 21:27:18;;;;;;;10.85;6.28;;;17.00;99.90;;;;;;12430640;28;21102;-43
2021/09/12 21:33:20;;;;;;;11.20;5.50;;;17.20;99.90;;;;;;12424953;28;20081;-37
2021/09/12 21:39:22;;;;;;;8.25;5.68;;;17.20;99.90;;;;;;12432737;28;20049;-42
2021/09/12 21:45:24;;;;;;;8.65;5.35;;;17.20;99.90;;;;;;12426670;28;20065;-42
2021/09/12 21:51:26;;;;;;;12.65;5.47;;;17.20;99.90;;;;;;12423877;28;20100;-43
2021/09/12 21:57:28;;;;;;;7.85;4.70;;;17.10;99.90;;;;;;12426061;28;20543;-37
2021/09/12 22:03:30;;;;;;;8.98;4.65;;;17.10;99.90;;;;;;12426950;28;20153;-42
2021/09/12 22:09:33;;;;;;;8.30;4.35;;;17.10;99.90;;;;;;12426148;28;20084;-41
2021/09/12 22:15:35;;;;;;;7.68;4.93;;;17.00;99.90;;;;;;12424736;28;20774;-43
2021/09/12 22:21:37;;;;;;;8.23;4.80;;;16.90;99.90;;;;;;12424919;28;20038;-42
2021/09/12 22:27:39;;;;;;;9.88;5.47;;;16.70;99.90;;;;;;12428205;28;20099;-42
2021/09/12 22:33:41;;;;;;;7.90;5.18;;;16.50;99.90;;;;;;12423201;28;20468;-42
2021/09/12 22:39:43;;;;;;;7.43;4.75;;;16.40;99.90;;;;;;12419979;28;20105;-37
2021/09/12 22:45:45;;;;;;;7.50;4.50;;;16.30;99.90;;;;;;12421676;28;20073;-36
2021/09/12 22:51:47;;;;;;;9.25;3.75;;;16.40;99.90;;;;;;12420395;28;20042;-37
2021/09/12 22:57:49;;;;;;;6.70;3.03;;;16.40;99.90;;;;;;12420906;28;20508;-42
2021/09/12 23:03:51;;;;;;;7.78;2.95;;;16.50;99.90;;;;;;12417347;28;20061;-43
2021/09/12 23:09:53;;;;;;;6.00;2.83;;;16.50;99.90;;;;;;12420090;28;20050;-39
2021/09/12 23:15:55;;;;;;;5.68;2.90;;;16.50;99.90;;;;;;12423018;28;20054;-42
2021/09/12 23:21:57;;;;;;;5.57;3.20;;;16.30;99.90;;;;;;12421946;28;20049;-37
2021/09/12 23:27:59;;;;;;;7.32;3.20;;;16.20;99.90;;;;;;12421736;28;20451;-42
2021/09/12 23:34:01;;;;;;;6.20;3.30;;;16.30;99.90;;;;;;12420272;28;20065;-44
2021/09/12 23:40:04;;;;;;;7.47;3.70;;;16.10;99.90;;;;;;12421390;28;20059;-37
2021/09/12 23:46:06;;;;;;;6.93;4.10;;;16.10;99.90;;;;;;12418868;28;20054;-42
2021/09/12 23:52:08;;;;;;;8.90;4.60;;;16.00;99.90;;;;;;12428005;28;20054;-43
2021/09/12 23:58:10;;;;;;;12.45;4.68;;;16.00;99.90;;;;;;12430430;28;20062;-42
